Time;durP1;ratioP1;P1;durP2;ratioP2;P2;SDS_P1;SDS_P2;PMS_P1;PMS_P2;Temp;Humidity;BMP_temperature;BMP_pressure;BME280_temperature;BME280_humidity;BME280_pressure;Samples;Min_cycle;Max_cycle;Signal;HPM_P1;HPM_P2
2023/10/30 00:01:47;;;;;;;0.70;0.70;;;10.20;99.90;;;;;;5072306;28;20044;-67
2023/10/30 00:04:13;;;;;;;1.15;0.80;;;10.20;99.90;;;;;;5072344;28;20041;-67
2023/10/30 00:06:39;;;;;;;1.23;0.85;;;10.20;99.90;;;;;;5076064;28;20032;-65
2023/10/30 00:09:05;;;;;;;0.80;0.80;;;10.20;99.90;;;;;;5076086;28;20052;-65
2023/10/30 00:11:31;;;;;;;1.42;0.63;;;10.10;99.90;;;;;;5076190;28;20068;-65
2023/10/30 00:13:56;;;;;;;1.13;0.68;;;10.10;99.90;;;;;;5075830;28;20528;-65
2023/10/30 00:16:22;;;;;;;0.70;0.60;;;10.10;99.90;;;;;;5076131;28;20388;-65
2023/10/30 00:18:48;;;;;;;1.58;0.70;;;10.60;99.90;;;;;;5076094;28;20045;-65
2023/10/30 00:21:14;;;;;;;0.70;0.70;;;10.00;99.90;;;;;;5076041;28;20040;-65
2023/10/30 00:23:40;;;;;;;5.45;0.80;;;10.00;99.90;;;;;;5076000;28;20479;-65
2023/10/30 00:26:06;;;;;;;1.02;0.80;;;10.00;99.90;;;;;;5075609;28;20048;-65
2023/10/30 00:28:34;;;;;;;1.52;0.90;;;10.00;99.90;;;;;;5075666;28;20081;-67
2023/10/30 00:31:00;;;;;;;0.70;0.70;;;10.00;99.90;;;;;;5075839;28;20072;-67
2023/10/30 00:33:26;;;;;;;1.27;1.02;;;10.00;99.90;;;;;;5075525;28;20037;-67
2023/10/30 00:35:51;;;;;;;0.88;0.88;;;9.90;99.90;;;;;;5075731;28;20115;-67
2023/10/30 00:38:17;;;;;;;2.72;1.02;;;9.90;99.90;;;;;;5075705;28;20059;-67
2023/10/30 00:40:43;;;;;;;1.85;1.13;;;9.90;99.90;;;;;;5075665;28;20423;-67
2023/10/30 00:43:09;;;;;;;1.63;0.90;;;9.80;99.90;;;;;;5075178;28;20060;-67
2023/10/30 00:45:34;;;;;;;0.65;0.60;;;9.80;99.90;;;;;;5075330;28;20536;-67
2023/10/30 00:48:00;;;;;;;0.85;0.70;;;9.80;99.90;;;;;;5075640;28;20041;-66
2023/10/30 00:50:25;;;;;;;1.42;0.90;;;9.80;99.90;;;;;;5075429;28;20047;-65
2023/10/30 00:52:51;;;;;;;1.58;0.85;;;9.70;99.90;;;;;;5075420;28;20400;-65
2023/10/30 00:55:16;;;;;;;0.80;0.70;;;9.70;99.90;;;;;;5075379;28;20033;-65
2023/10/30 00:57:42;;;;;;;2.92;0.70;;;9.70;99.90;;;;;;5075390;28;20497;-65
2023/10/30 01:00:08;;;;;;;0.70;0.70;;;9.70;99.90;;;;;;5075356;28;20048;-65
2023/10/30 01:02:34;;;;;;;1.00;0.80;;;9.60;99.90;;;;;;5075280;28;20040;-65
2023/10/30 01:04:59;;;;;;;1.02;0.93;;;9.60;99.90;;;;;;5075258;28;20045;-65
2023/10/30 01:07:25;;;;;;;0.88;0.70;;;9.60;99.90;;;;;;5075266;28;20036;-65
2023/10/30 01:09:51;;;;;;;1.20;0.90;;;9.60;99.90;;;;;;5074838;28;20115;-65
2023/10/30 01:12:16;;;;;;;1.23;1.00;;;9.60;99.90;;;;;;5075090;28;20032;-65
2023/10/30 01:14:42;;;;;;;1.15;0.77;;;9.60;99.90;;;;;;5075057;28;20068;-65
2023/10/30 01:17:08;;;;;;;0.60;0.60;;;9.60;99.90;;;;;;5074281;28;20115;-66
2023/10/30 01:19:33;;;;;;;1.17;0.70;;;9.50;99.90;;;;;;5056799;28;20043;-67
2023/10/30 01:21:59;;;;;;;1.77;1.02;;;9.50;99.90;;;;;;5074876;28;20370;-67
2023/10/30 01:24:25;;;;;;;1.02;0.80;;;9.50;99.90;;;;;;5074828;28;20086;-67
2023/10/30 01:26:50;;;;;;;0.73;0.73;;;9.40;99.90;;;;;;5074542;28;20047;-67
2023/10/30 01:29:16;;;;;;;0.60;0.60;;;9.50;99.90;;;;;;5074653;28;20047;-68
2023/10/30 01:31:42;;;;;;;1.80;0.80;;;9.40;99.90;;;;;;5073195;28;20039;-67
2023/10/30 01:34:07;;;;;;;0.68;0.68;;;9.50;99.90;;;;;;5073158;28;20036;-67
2023/10/30 01:36:33;;;;;;;1.05;0.77;;;9.40;99.90;;;;;;5074561;28;20480;-67
2023/10/30 01:38:59;;;;;;;0.82;0.80;;;9.40;99.90;;;;;;5074503;28;20041;-67
2023/10/30 01:41:24;;;;;;;1.15;0.80;;;9.40;99.90;;;;;;5074288;28;20549;-67
2023/10/30 01:43:50;;;;;;;0.70;0.70;;;9.30;99.90;;;;;;5074468;28;20055;-67
2023/10/30 01:46:16;;;;;;;4.78;1.35;;;9.40;99.90;;;;;;5074456;28;20052;-67
2023/10/30 01:48:42;;;;;;;0.98;0.70;;;9.30;99.90;;;;;;5073001;28;20090;-67
2023/10/30 01:51:10;;;;;;;0.60;0.60;;;9.30;99.90;;;;;;5073974;28;20085;-67
2023/10/30 01:53:37;;;;;;;2.17;0.93;;;9.30;99.90;;;;;;5074531;28;20036;-67
2023/10/30 01:56:04;;;;;;;0.70;0.70;;;9.30;99.90;;;;;;5074109;28;20120;-67
2023/10/30 01:58:30;;;;;;;0.80;0.80;;;9.30;99.90;;;;;;5074123;28;20032;-67
2023/10/30 02:00:57;;;;;;;0.93;0.80;;;9.30;99.90;;;;;;5073818;28;20044;-67
2023/10/30 02:03:23;;;;;;;1.05;0.90;;;9.30;99.90;;;;;;5072716;28;20055;-67
2023/10/30 02:05:49;;;;;;;0.85;0.80;;;9.30;99.90;;;;;;5073994;28;20032;-66
2023/10/30 02:08:16;;;;;;;1.95;0.95;;;9.30;99.90;;;;;;5073991;28;20141;-65
2023/10/30 02:10:42;;;;;;;0.90;0.90;;;9.30;99.90;;;;;;5073875;28;20419;-65
2023/10/30 02:13:08;;;;;;;2.05;1.08;;;9.40;99.90;;;;;;5073847;28;20040;-66
2023/10/30 02:15:34;;;;;;;1.13;0.85;;;9.40;99.90;;;;;;5073800;28;20045;-65
2023/10/30 02:18:00;;;;;;;1.08;0.80;;;9.90;99.90;;;;;;5073784;28;20097;-65
2023/10/30 02:20:26;;;;;;;3.50;1.15;;;9.50;99.90;;;;;;5073333;28;20036;-65
2023/10/30 02:22:52;;;;;;;1.42;1.10;;;9.50;99.90;;;;;;5073636;28;20382;-65
2023/10/30 02:25:22;;;;;;;1.48;0.82;;;9.50;99.90;;;;;;5073323;28;20094;-65
2023/10/30 02:27:49;;;;;;;1.40;0.95;;;9.50;99.90;;;;;;5073422;28;20508;-66
2023/10/30 02:30:14;;;;;;;1.15;0.98;;;9.50;99.90;;;;;;5073438;28;20106;-67
2023/10/30 02:32:42;;;;;;;1.52;0.90;;;9.90;99.90;;;;;;5073197;28;20037;-67
2023/10/30 02:35:13;;;;;;;1.20;0.80;;;9.50;99.90;;;;;;5073430;28;20061;-67
2023/10/30 02:37:39;;;;;;;1.83;1.08;;;9.50;99.90;;;;;;5073228;28;20478;-66
2023/10/30 02:40:05;;;;;;;2.65;1.20;;;9.50;99.90;;;;;;5071907;28;20385;-65
2023/10/30 02:42:31;;;;;;;2.38;1.13;;;9.60;99.90;;;;;;5071822;28;20049;-65
2023/10/30 02:44:57;;;;;;;1.02;0.82;;;9.60;99.90;;;;;;5073300;28;20071;-65
2023/10/30 02:47:24;;;;;;;1.17;0.98;;;9.50;99.90;;;;;;5071770;28;20063;-65
2023/10/30 02:49:50;;;;;;;2.33;1.02;;;9.50;99.90;;;;;;5073164;28;20047;-65
2023/10/30 02:52:15;;;;;;;2.38;1.10;;;9.50;99.90;;;;;;5073002;28;20045;-65
2023/10/30 02:54:41;;;;;;;1.15;0.88;;;9.50;99.90;;;;;;5073316;28;20120;-65
2023/10/30 02:57:07;;;;;;;1.52;1.25;;;9.60;99.90;;;;;;5073175;28;20033;-65
2023/10/30 02:59:32;;;;;;;3.70;1.50;;;9.50;99.90;;;;;;5073215;28;20476;-65
2023/10/30 03:02:01;;;;;;;1.90;1.33;;;9.50;99.90;;;;;;5073192;28;20032;-65
2023/10/30 03:04:26;;;;;;;1.58;1.10;;;9.50;99.90;;;;;;5073103;28;20128;-65
2023/10/30 03:06:52;;;;;;;1.33;1.02;;;9.50;99.90;;;;;;5073116;28;20083;-65
2023/10/30 03:09:17;;;;;;;1.23;0.93;;;9.50;99.90;;;;;;5072695;28;20540;-65
2023/10/30 03:11:43;;;;;;;1.52;1.00;;;9.50;99.90;;;;;;5071556;28;20044;-65
2023/10/30 03:14:09;;;;;;;1.77;1.05;;;9.50;99.90;;;;;;5072786;28;20076;-65
2023/10/30 03:16:34;;;;;;;2.42;0.95;;;9.50;99.90;;;;;;5073022;28;20094;-65
2023/10/30 03:19:00;;;;;;;1.27;1.10;;;9.50;99.90;;;;;;5073071;28;20469;-65
2023/10/30 03:21:25;;;;;;;2.25;1.15;;;9.80;99.90;;;;;;5072850;28;20093;-65
2023/10/30 03:23:51;;;;;;;1.58;1.00;;;9.50;99.90;;;;;;5072950;28;20041;-65
2023/10/30 03:26:17;;;;;;;1.13;1.02;;;9.60;99.90;;;;;;5071742;28;20036;-65
2023/10/30 03:28:42;;;;;;;1.80;1.25;;;9.50;99.90;;;;;;5072847;28;20106;-65
2023/10/30 03:31:09;;;;;;;1.33;1.00;;;9.60;99.90;;;;;;5072615;28;20396;-65
2023/10/30 03:33:35;;;;;;;1.75;0.93;;;9.60;99.90;;;;;;5071282;28;20451;-65
2023/10/30 03:36:02;;;;;;;1.50;0.98;;;9.50;99.90;;;;;;5072844;28;20496;-65
2023/10/30 03:38:28;;;;;;;1.60;0.90;;;9.60;99.90;;;;;;5073002;28;20385;-67
2023/10/30 03:40:53;;;;;;;1.48;1.17;;;9.50;99.90;;;;;;5075161;28;20070;-68
2023/10/30 03:43:19;;;;;;;2.70;1.10;;;9.60;99.90;;;;;;5076315;28;20099;-67
2023/10/30 03:45:45;;;;;;;1.50;1.13;;;9.50;99.90;;;;;;5076685;28;20040;-67
2023/10/30 03:48:11;;;;;;;1.45;1.00;;;9.60;99.90;;;;;;5076650;28;20442;-67
2023/10/30 03:50:37;;;;;;;2.65;1.38;;;9.60;99.90;;;;;;5075382;28;20039;-67
2023/10/30 03:53:02;;;;;;;1.60;1.13;;;10.10;99.90;;;;;;5076601;28;20045;-67
2023/10/30 03:55:28;;;;;;;2.90;1.40;;;9.70;99.90;;;;;;5076508;28;20044;-66
2023/10/30 03:57:54;;;;;;;2.38;1.40;;;9.70;99.90;;;;;;5076409;28;20115;-67
2023/10/30 04:00:19;;;;;;;1.77;1.08;;;9.70;99.90;;;;;;5076468;28;20052;-67
2023/10/30 04:02:45;;;;;;;1.77;0.95;;;9.60;99.90;;;;;;5076366;28;20044;-67
2023/10/30 04:05:11;;;;;;;2.92;1.33;;;9.60;99.90;;;;;;5058375;28;20050;-67
2023/10/30 04:07:36;;;;;;;1.10;1.00;;;9.70;99.90;;;;;;5076300;28;20040;-67
2023/10/30 04:10:03;;;;;;;2.03;1.40;;;9.60;99.90;;;;;;5075865;28;20087;-67
2023/10/30 04:12:29;;;;;;;1.42;1.10;;;9.60;99.90;;;;;;5091506;28;20135;-67
2023/10/30 04:14:55;;;;;;;1.63;1.38;;;9.70;99.90;;;;;;5074929;28;20047;-67
2023/10/30 04:17:21;;;;;;;1.83;1.20;;;9.60;99.90;;;;;;5076101;28;20086;-67
2023/10/30 04:19:46;;;;;;;1.95;1.40;;;10.00;99.90;;;;;;5075703;28;20037;-67
2023/10/30 04:22:12;;;;;;;1.30;1.20;;;9.70;99.90;;;;;;5075836;28;20051;-67
2023/10/30 04:24:37;;;;;;;2.50;1.20;;;9.60;99.90;;;;;;5075889;28;20108;-67
2023/10/30 04:27:03;;;;;;;1.63;1.23;;;9.60;99.90;;;;;;5075886;28;20074;-67
2023/10/30 04:29:29;;;;;;;1.35;1.00;;;9.60;99.90;;;;;;5075559;28;20036;-67
2023/10/30 04:31:54;;;;;;;1.13;0.95;;;9.60;99.90;;;;;;5075827;28;20040;-67
2023/10/30 04:34:20;;;;;;;1.48;0.90;;;9.60;99.90;;;;;;5075701;28;20032;-67
2023/10/30 04:36:46;;;;;;;2.38;1.63;;;10.60;99.90;;;;;;5075704;28;20032;-67
2023/10/30 04:39:13;;;;;;;1.00;0.85;;;9.60;99.90;;;;;;5075772;28;20040;-67
2023/10/30 04:41:39;;;;;;;0.77;0.77;;;9.60;99.90;;;;;;5073962;28;20072;-67
2023/10/30 04:44:05;;;;;;;1.38;1.10;;;9.60;99.90;;;;;;5075647;28;20037;-67
2023/10/30 04:46:31;;;;;;;1.20;1.10;;;9.50;99.90;;;;;;5075234;28;20047;-67
2023/10/30 04:48:56;;;;;;;1.77;1.35;;;9.50;99.90;;;;;;5075488;28;20043;-67
2023/10/30 04:51:22;;;;;;;1.13;0.77;;;9.50;99.90;;;;;;5074475;28;20040;-67
2023/10/30 04:53:48;;;;;;;1.88;0.95;;;9.60;99.90;;;;;;5075301;28;20069;-67
2023/10/30 04:56:13;;;;;;;3.83;1.42;;;9.60;99.90;;;;;;5075389;28;20086;-66
2023/10/30 04:58:39;;;;;;;1.35;1.10;;;9.50;99.90;;;;;;5075364;28;20043;-67
2023/10/30 05:01:09;;;;;;;1.40;1.30;;;9.60;99.90;;;;;;5075360;28;20139;-67
2023/10/30 05:03:36;;;;;;;1.60;1.05;;;9.50;99.90;;;;;;5073975;28;20044;-67
2023/10/30 05:06:02;;;;;;;1.55;1.00;;;9.60;99.90;;;;;;5075220;28;20051;-67
2023/10/30 05:08:27;;;;;;;1.48;1.00;;;9.50;99.90;;;;;;5075185;28;20044;-67
2023/10/30 05:10:53;;;;;;;1.88;1.15;;;9.50;99.90;;;;;;5075025;28;20400;-67
2023/10/30 05:13:20;;;;;;;1.08;0.88;;;9.40;99.90;;;;;;5075112;28;20111;-67
2023/10/30 05:15:46;;;;;;;2.85;1.30;;;9.50;99.90;;;;;;5075016;28;20040;-67
2023/10/30 05:18:11;;;;;;;1.70;1.08;;;9.40;99.90;;;;;;5075060;28;20477;-67
2023/10/30 05:20:37;;;;;;;1.08;0.98;;;9.40;99.90;;;;;;5074955;28;20044;-67
2023/10/30 05:23:03;;;;;;;1.95;1.00;;;9.40;99.90;;;;;;5074877;28;20037;-67
2023/10/30 05:25:28;;;;;;;1.65;1.10;;;9.40;99.90;;;;;;5073848;28;20071;-67
2023/10/30 05:27:54;;;;;;;2.00;1.27;;;9.40;99.90;;;;;;5074444;28;20036;-67
2023/10/30 05:30:20;;;;;;;1.73;1.10;;;9.40;99.90;;;;;;5074695;28;20124;-67
2023/10/30 05:32:45;;;;;;;1.73;0.95;;;9.40;99.90;;;;;;5074462;28;20048;-67
2023/10/30 05:35:11;;;;;;;2.95;1.13;;;9.40;99.90;;;;;;5074694;28;20070;-67
2023/10/30 05:37:36;;;;;;;2.13;1.15;;;9.40;99.90;;;;;;5074613;28;20498;-66
2023/10/30 05:40:02;;;;;;;1.20;0.88;;;9.40;99.90;;;;;;5074305;28;20037;-65
2023/10/30 05:42:28;;;;;;;1.02;0.82;;;9.40;99.90;;;;;;5074206;28;20065;-65
2023/10/30 05:44:54;;;;;;;2.10;1.20;;;9.40;99.90;;;;;;5074150;28;20060;-66
2023/10/30 05:47:19;;;;;;;1.55;0.93;;;9.30;99.90;;;;;;5074383;28;20072;-65
2023/10/30 05:49:45;;;;;;;0.90;0.90;;;9.30;99.90;;;;;;5074306;28;20149;-70
2023/10/30 05:52:11;;;;;;;2.10;1.27;;;9.30;99.90;;;;;;5074012;28;20045;-65
2023/10/30 05:54:37;;;;;;;2.63;1.35;;;9.30;99.90;;;;;;5072701;28;20044;-65
2023/10/30 05:57:02;;;;;;;1.10;0.90;;;9.30;99.90;;;;;;5074193;28;20043;-65
2023/10/30 05:59:28;;;;;;;2.63;1.42;;;9.30;99.90;;;;;;5074296;28;20119;-67
2023/10/30 06:01:54;;;;;;;1.98;1.15;;;9.30;99.90;;;;;;5074055;28;20040;-67
2023/10/30 06:04:19;;;;;;;3.03;1.38;;;9.20;99.90;;;;;;5073814;28;20083;-66
2023/10/30 06:06:45;;;;;;;1.77;1.20;;;9.20;99.90;;;;;;5074017;28;20036;-67
2023/10/30 06:09:10;;;;;;;1.80;1.10;;;9.30;99.90;;;;;;5073976;28;20068;-66
2023/10/30 06:11:36;;;;;;;1.67;1.00;;;9.30;99.90;;;;;;5073905;28;20071;-67
2023/10/30 06:14:02;;;;;;;2.20;1.42;;;9.30;99.90;;;;;;5072248;28;20048;-66
2023/10/30 06:16:27;;;;;;;1.35;1.00;;;9.30;99.90;;;;;;5073833;28;20437;-67
2023/10/30 06:18:53;;;;;;;2.72;1.10;;;9.20;99.90;;;;;;5073785;28;20484;-70
2023/10/30 06:21:19;;;;;;;1.92;1.17;;;9.20;99.90;;;;;;5072488;28;20505;-69
2023/10/30 06:23:44;;;;;;;1.27;1.00;;;9.20;99.90;;;;;;5073698;28;20036;-67
2023/10/30 06:26:12;;;;;;;5.85;1.63;;;9.20;99.90;;;;;;5073680;28;20043;-66
2023/10/30 06:28:38;;;;;;;2.28;1.42;;;9.30;99.90;;;;;;5073297;28;20045;-69
2023/10/30 06:31:18;;;;;;;1.50;1.02;;;9.30;99.90;;;;;;5071922;28;20040;-70
2023/10/30 06:33:45;;;;;;;2.67;1.15;;;9.30;99.90;;;;;;5073540;28;20477;-70
2023/10/30 06:36:10;;;;;;;1.08;0.98;;;9.30;99.90;;;;;;5073224;28;20116;-66
2023/10/30 06:38:36;;;;;;;2.08;1.30;;;9.30;99.90;;;;;;5073473;28;20068;-67
2023/10/30 06:41:03;;;;;;;1.63;1.00;;;9.30;99.90;;;;;;5073347;28;20111;-68
2023/10/30 06:43:29;;;;;;;2.17;1.00;;;9.40;99.90;;;;;;5072981;28;20060;-67
2023/10/30 06:46:02;;;;;;;1.50;1.00;;;9.40;99.90;;;;;;5073366;28;20056;-67
2023/10/30 06:48:28;;;;;;;2.10;1.30;;;9.40;99.90;;;;;;5073360;28;20477;-67
2023/10/30 06:50:54;;;;;;;1.48;1.15;;;9.50;99.90;;;;;;5088615;28;20124;-75
2023/10/30 06:53:20;;;;;;;1.38;1.00;;;9.50;99.90;;;;;;5072048;28;20036;-74
2023/10/30 06:55:46;;;;;;;2.53;1.10;;;9.50;99.90;;;;;;5071660;28;20089;-74
2023/10/30 06:58:11;;;;;;;2.45;1.40;;;9.60;99.90;;;;;;5071676;28;20472;-71
2023/10/30 07:00:37;;;;;;;1.98;1.15;;;9.70;99.90;;;;;;5071670;28;20442;-68
2023/10/30 07:03:03;;;;;;;1.65;1.23;;;9.70;99.90;;;;;;5073211;28;20064;-67
2023/10/30 07:05:29;;;;;;;2.30;1.02;;;9.80;99.90;;;;;;5071635;28;20488;-66
2023/10/30 07:07:54;;;;;;;1.52;1.10;;;10.50;99.90;;;;;;5071625;28;20044;-66
2023/10/30 07:10:20;;;;;;;2.92;1.35;;;10.00;99.90;;;;;;5073058;28;20036;-66
2023/10/30 07:12:46;;;;;;;2.03;1.13;;;10.10;99.90;;;;;;5073021;28;20396;-66
2023/10/30 07:15:11;;;;;;;1.88;1.13;;;10.10;99.90;;;;;;5072237;28;20033;-66
2023/10/30 07:17:37;;;;;;;2.85;1.70;;;10.20;99.90;;;;;;5072702;28;20040;-65
2023/10/30 07:20:03;;;;;;;2.78;1.42;;;10.20;99.90;;;;;;5072928;28;20549;-65
2023/10/30 07:22:29;;;;;;;3.33;1.50;;;10.30;99.90;;;;;;5072992;28;20369;-66
2023/10/30 07:24:56;;;;;;;2.10;1.45;;;10.90;99.90;;;;;;5072871;28;20043;-65
2023/10/30 07:27:22;;;;;;;2.38;1.30;;;11.30;99.90;;;;;;5072918;28;20427;-65
2023/10/30 07:29:48;;;;;;;2.15;1.27;;;10.40;99.90;;;;;;5072770;28;20048;-65
2023/10/30 07:32:13;;;;;;;1.75;1.00;;;10.50;99.90;;;;;;5071384;28;20488;-65
2023/10/30 07:34:40;;;;;;;1.33;0.95;;;10.50;99.90;;;;;;5072812;28;20052;-65
2023/10/30 07:37:06;;;;;;;2.10;1.10;;;10.50;99.90;;;;;;5072839;28;20036;-67
2023/10/30 07:39:32;;;;;;;2.08;1.10;;;10.50;99.90;;;;;;5071623;28;20773;-66
2023/10/30 07:41:58;;;;;;;1.10;1.00;;;11.00;99.90;;;;;;5072403;28;20057;-66
2023/10/30 07:44:23;;;;;;;1.23;1.00;;;10.60;99.90;;;;;;5072768;28;20051;-66
2023/10/30 07:46:49;;;;;;;1.40;0.95;;;10.60;99.90;;;;;;5072767;28;20052;-66
2023/10/30 07:49:15;;;;;;;1.17;0.85;;;10.70;99.90;;;;;;5072695;28;20127;-66
2023/10/30 07:51:40;;;;;;;1.58;1.15;;;10.70;99.90;;;;;;5072400;28;20052;-66
2023/10/30 07:54:06;;;;;;;1.40;0.95;;;11.50;99.90;;;;;;5072615;28;20028;-66
2023/10/30 07:56:32;;;;;;;1.98;1.30;;;10.80;99.90;;;;;;5072392;28;20040;-66
2023/10/30 07:58:58;;;;;;;1.33;0.95;;;10.80;99.90;;;;;;5072758;28;20600;-68
2023/10/30 08:01:24;;;;;;;3.30;1.50;;;10.90;99.90;;;;;;5072529;28;20120;-67
2023/10/30 08:03:50;;;;;;;2.78;1.33;;;10.90;99.90;;;;;;5072539;28;20036;-67
2023/10/30 08:06:15;;;;;;;1.95;1.23;;;11.00;99.90;;;;;;5072583;28;20040;-71
2023/10/30 08:08:41;;;;;;;2.33;0.98;;;11.00;99.90;;;;;;5071127;28;20036;-70
2023/10/30 08:11:06;;;;;;;1.88;0.82;;;11.00;99.90;;;;;;5054181;28;20044;-67
2023/10/30 08:13:33;;;;;;;2.25;1.05;;;11.10;99.90;;;;;;5072510;28;20037;-67
2023/10/30 08:15:59;;;;;;;2.15;1.35;;;11.10;99.90;;;;;;5072455;28;20036;-67
2023/10/30 08:18:25;;;;;;;2.97;1.30;;;11.10;99.90;;;;;;5072471;28;20472;-67
2023/10/30 08:20:51;;;;;;;1.45;1.00;;;11.20;99.90;;;;;;5072364;28;20090;-67
2023/10/30 08:23:17;;;;;;;1.95;1.30;;;11.20;99.90;;;;;;5072410;28;20100;-67
2023/10/30 08:25:43;;;;;;;2.35;1.02;;;11.20;99.90;;;;;;5072498;28;20081;-67
2023/10/30 08:28:08;;;;;;;1.83;1.10;;;11.30;99.90;;;;;;5075627;28;20071;-67
2023/10/30 08:30:34;;;;;;;2.10;1.10;;;11.30;99.90;;;;;;5074269;28;20091;-67
2023/10/30 08:33:03;;;;;;;1.88;1.00;;;11.30;99.90;;;;;;5075511;28;20036;-67
2023/10/30 08:35:29;;;;;;;2.63;1.13;;;11.40;99.90;;;;;;5075554;28;20119;-66
2023/10/30 08:37:57;;;;;;;1.85;1.27;;;11.40;99.90;;;;;;5074558;28;20043;-66
2023/10/30 08:40:23;;;;;;;1.00;0.80;;;11.40;99.90;;;;;;5075805;28;20055;-67
2023/10/30 08:42:49;;;;;;;1.63;0.98;;;11.40;99.90;;;;;;5075400;28;20068;-67
2023/10/30 08:45:15;;;;;;;1.25;1.02;;;11.40;99.90;;;;;;5075642;28;20043;-67
2023/10/30 08:47:40;;;;;;;2.35;1.38;;;11.60;99.90;;;;;;5075315;28;20041;-67
2023/10/30 08:50:08;;;;;;;2.15;1.15;;;11.60;99.90;;;;;;5075445;28;20473;-67
2023/10/30 08:52:34;;;;;;;2.85;1.30;;;11.60;99.90;;;;;;5075477;28;20040;-67
2023/10/30 08:54:59;;;;;;;1.60;1.00;;;11.70;99.90;;;;;;5075471;28;20472;-66
2023/10/30 08:57:25;;;;;;;2.40;0.98;;;11.70;99.90;;;;;;5075410;28;20082;-67
2023/10/30 08:59:51;;;;;;;1.25;0.88;;;11.70;99.90;;;;;;5075041;28;20052;-67
2023/10/30 09:02:17;;;;;;;1.90;1.30;;;11.70;99.90;;;;;;5075337;28;20047;-67
2023/10/30 09:04:42;;;;;;;1.63;0.98;;;11.80;99.90;;;;;;5075306;28;20541;-68
2023/10/30 09:07:08;;;;;;;1.80;0.90;;;11.80;99.90;;;;;;5074977;28;20040;-67
2023/10/30 09:09:34;;;;;;;2.22;1.13;;;11.80;99.90;;;;;;5073678;28;20408;-66
2023/10/30 09:12:00;;;;;;;1.35;0.90;;;12.50;99.90;;;;;;5075152;28;20443;-66
2023/10/30 09:14:26;;;;;;;2.85;1.17;;;11.80;99.90;;;;;;5075092;28;20033;-66
2023/10/30 09:16:52;;;;;;;3.22;1.30;;;11.90;99.90;;;;;;5074973;28;20089;-66
2023/10/30 09:19:18;;;;;;;2.63;1.35;;;12.00;99.90;;;;;;5074829;28;20043;-67
2023/10/30 09:21:44;;;;;;;1.40;1.30;;;12.10;99.90;;;;;;5074693;28;20543;-67
2023/10/30 09:24:09;;;;;;;1.30;0.73;;;12.20;99.90;;;;;;5074939;28;20033;-68
2023/10/30 09:26:35;;;;;;;1.70;0.93;;;12.70;99.90;;;;;;5074862;28;20036;-68
2023/10/30 09:29:01;;;;;;;1.23;0.85;;;12.30;99.90;;;;;;5074498;28;20804;-67
2023/10/30 09:31:30;;;;;;;1.60;1.15;;;12.30;99.90;;;;;;5074867;28;20040;-67
2023/10/30 09:33:56;;;;;;;2.15;1.25;;;12.40;99.90;;;;;;5074345;28;20119;-67
2023/10/30 09:36:22;;;;;;;2.53;1.30;;;12.40;99.90;;;;;;5074723;28;20041;-67
2023/10/30 09:38:48;;;;;;;2.28;1.08;;;12.20;99.90;;;;;;5072737;28;20032;-68
2023/10/30 09:41:18;;;;;;;1.05;0.77;;;12.60;99.90;;;;;;5074381;28;20044;-67
2023/10/30 09:43:48;;;;;;;1.88;0.90;;;12.70;99.90;;;;;;5074567;28;20083;-67
2023/10/30 09:46:14;;;;;;;1.58;0.80;;;12.70;99.90;;;;;;5074468;28;20048;-67
2023/10/30 09:48:43;;;;;;;1.17;1.05;;;12.70;99.90;;;;;;5073133;28;20068;-67
2023/10/30 09:51:11;;;;;;;1.77;0.82;;;13.50;99.90;;;;;;5074299;28;20127;-69
2023/10/30 09:53:38;;;;;;;1.83;1.10;;;12.70;99.90;;;;;;5073998;28;20165;-67
2023/10/30 09:56:06;;;;;;;1.67;0.88;;;12.60;99.90;;;;;;5074129;28;20042;-67
2023/10/30 09:58:33;;;;;;;2.70;1.17;;;12.70;99.90;;;;;;5074157;28;20445;-67
2023/10/30 10:00:59;;;;;;;2.28;1.33;;;12.60;99.90;;;;;;5072795;28;20050;-67
2023/10/30 10:03:25;;;;;;;2.35;1.00;;;12.60;99.90;;;;;;5074059;28;20055;-67
2023/10/30 10:05:58;;;;;;;1.30;0.82;;;12.60;99.90;;;;;;5074077;28;20484;-67
2023/10/30 10:08:25;;;;;;;2.67;1.30;;;12.40;99.90;;;;;;5074014;28;20083;-68
2023/10/30 10:10:57;;;;;;;1.75;0.95;;;12.50;99.90;;;;;;5073784;28;20127;-68
2023/10/30 10:13:26;;;;;;;2.58;0.93;;;12.40;99.90;;;;;;5073860;28;20472;-69
2023/10/30 10:15:52;;;;;;;1.25;0.95;;;12.30;99.90;;;;;;5072556;28;20040;-68
2023/10/30 10:18:31;;;;;;;1.85;0.60;;;12.30;99.90;;;;;;5073809;28;20039;-68
2023/10/30 10:21:04;;;;;;;1.67;0.70;;;13.00;99.90;;;;;;5073884;28;20111;-67
2023/10/30 10:23:33;;;;;;;1.60;1.08;;;12.90;99.90;;;;;;5072452;28;20051;-66
2023/10/30 10:26:03;;;;;;;1.45;0.80;;;12.30;99.90;;;;;;5072039;28;20044;-69
2023/10/30 10:28:28;;;;;;;2.70;1.38;;;12.90;99.90;;;;;;5073637;28;20384;-66
2023/10/30 10:30:54;;;;;;;1.70;1.00;;;12.40;99.90;;;;;;5073562;28;20036;-67
2023/10/30 10:33:28;;;;;;;2.33;1.15;;;12.50;99.90;;;;;;5073310;28;20036;-66
2023/10/30 10:35:55;;;;;;;1.30;0.93;;;12.60;99.90;;;;;;5073228;28;20032;-65
2023/10/30 10:38:23;;;;;;;2.13;1.02;;;13.00;99.90;;;;;;5073444;28;20404;-66
2023/10/30 10:40:50;;;;;;;2.33;1.10;;;13.00;99.90;;;;;;5073540;28;20048;-66
2023/10/30 10:43:21;;;;;;;1.83;1.02;;;13.10;99.90;;;;;;5073085;28;20055;-66
2023/10/30 10:45:54;;;;;;;1.85;0.90;;;13.70;99.90;;;;;;5073075;28;20484;-66
2023/10/30 10:48:21;;;;;;;1.30;0.88;;;13.30;99.90;;;;;;5073416;28;20036;-66
2023/10/30 10:50:50;;;;;;;0.95;0.70;;;13.30;99.90;;;;;;5072416;28;20051;-71
2023/10/30 10:53:20;;;;;;;2.10;0.88;;;13.60;99.90;;;;;;5071707;28;20029;-72
2023/10/30 10:55:47;;;;;;;1.95;0.90;;;14.20;99.90;;;;;;5071966;28;20123;-68
2023/10/30 10:58:24;;;;;;;1.63;0.73;;;13.50;99.90;;;;;;5073247;28;20037;-67
2023/10/30 11:00:52;;;;;;;0.90;0.68;;;13.60;99.90;;;;;;5072850;28;20041;-69
2023/10/30 11:03:19;;;;;;;2.92;1.13;;;13.60;99.90;;;;;;5073189;28;20404;-69
2023/10/30 11:05:48;;;;;;;2.00;1.17;;;13.60;99.90;;;;;;5072786;28;20051;-67
2023/10/30 11:08:34;;;;;;;0.60;0.60;;;13.70;99.90;;;;;;5072760;28;20041;-67
2023/10/30 11:11:25;;;;;;;0.95;0.52;;;13.70;99.90;;;;;;5072692;28;20055;-67
2023/10/30 11:14:00;;;;;;;;;;;13.80;99.90;;;;;;5073197;28;20044;-67
2023/10/30 11:17:14;;;;;;;1.25;0.80;;;13.90;99.90;;;;;;5071565;28;19916;-67
2023/10/30 11:19:41;;;;;;;1.15;0.65;;;13.90;99.90;;;;;;5068156;28;20052;-67
2023/10/30 11:22:07;;;;;;;0.88;0.80;;;14.10;99.90;;;;;;5071454;28;20112;-67
2023/10/30 11:24:43;;;;;;;1.38;1.08;;;13.80;99.90;;;;;;5071698;28;20485;-67
2023/10/30 11:27:27;;;;;;;1.40;0.70;;;13.80;99.90;;;;;;5073041;28;20103;-67
2023/10/30 11:30:01;;;;;;;1.85;1.25;;;14.00;99.90;;;;;;5072954;28;20049;-67
2023/10/30 11:32:31;;;;;;;1.25;0.90;;;13.70;99.90;;;;;;5072593;28;20039;-67
2023/10/30 11:34:59;;;;;;;1.13;0.77;;;14.20;99.90;;;;;;5072572;28;20079;-67
2023/10/30 11:37:27;;;;;;;1.45;0.73;;;13.80;99.90;;;;;;5072545;28;20094;-67
2023/10/30 11:39:54;;;;;;;1.90;1.15;;;13.90;99.90;;;;;;5072787;28;20051;-70
2023/10/30 11:42:22;;;;;;;1.45;0.80;;;13.90;99.90;;;;;;5072546;28;20163;-67
2023/10/30 11:44:52;;;;;;;2.08;1.08;;;13.90;99.90;;;;;;5072490;28;20053;-66
2023/10/30 11:47:23;;;;;;;1.33;0.90;;;13.90;99.90;;;;;;5072751;28;20079;-66
2023/10/30 11:49:49;;;;;;;2.03;1.20;;;14.20;99.90;;;;;;5072578;28;20404;-67
2023/10/30 11:52:15;;;;;;;2.53;0.85;;;13.90;99.90;;;;;;5072635;28;20070;-68
2023/10/30 11:54:43;;;;;;;1.52;1.02;;;13.90;99.90;;;;;;5072717;28;20036;-66
2023/10/30 11:57:09;;;;;;;1.95;1.17;;;14.30;99.90;;;;;;5072612;28;20485;-66
2023/10/30 11:59:36;;;;;;;1.75;1.25;;;14.10;99.90;;;;;;5071344;28;20047;-66
2023/10/30 12:02:02;;;;;;;1.92;0.80;;;14.10;99.90;;;;;;5074939;28;20033;-64
2023/10/30 12:04:28;;;;;;;2.75;1.17;;;14.10;99.90;;;;;;5076417;28;20068;-64
2023/10/30 12:06:54;;;;;;;1.80;0.82;;;13.90;99.90;;;;;;5074934;28;20078;-64
2023/10/30 12:09:21;;;;;;;1.20;0.77;;;14.50;99.90;;;;;;5074735;28;20040;-64
2023/10/30 12:11:47;;;;;;;2.60;0.80;;;14.40;99.90;;;;;;5076018;28;20045;-64
2023/10/30 12:14:15;;;;;;;2.20;1.15;;;14.00;99.90;;;;;;5076254;28;20107;-65
2023/10/30 12:16:51;;;;;;;1.23;0.85;;;14.00;99.90;;;;;;5074716;28;20044;-65
2023/10/30 12:19:21;;;;;;;1.42;0.77;;;14.00;99.90;;;;;;5074726;28;20043;-65
2023/10/30 12:21:51;;;;;;;3.90;1.10;;;14.00;99.90;;;;;;5076026;28;20123;-64
2023/10/30 12:24:18;;;;;;;4.00;1.25;;;13.90;99.90;;;;;;5075750;28;20036;-64
2023/10/30 12:26:46;;;;;;;2.22;0.90;;;13.90;99.90;;;;;;5075726;28;20508;-64
2023/10/30 12:29:18;;;;;;;1.90;1.00;;;14.30;99.90;;;;;;5074663;28;20044;-64
2023/10/30 12:31:43;;;;;;;2.17;1.20;;;13.90;99.90;;;;;;5075987;28;20033;-64
2023/10/30 12:34:10;;;;;;;1.60;0.82;;;14.00;99.90;;;;;;5074342;28;20111;-64
2023/10/30 12:36:37;;;;;;;1.00;0.60;;;14.00;99.90;;;;;;5075840;28;20044;-64
2023/10/30 12:39:17;;;;;;;1.85;1.05;;;14.20;99.90;;;;;;5075766;28;20416;-64
2023/10/30 12:41:55;;;;;;;2.88;1.00;;;13.90;99.90;;;;;;5074417;28;20587;-66
2023/10/30 12:44:21;;;;;;;1.95;1.08;;;14.00;99.90;;;;;;5075725;28;20045;-66
2023/10/30 12:46:47;;;;;;;3.03;1.48;;;14.00;99.90;;;;;;5075389;28;20045;-66
2023/10/30 12:49:13;;;;;;;4.18;1.15;;;14.00;99.90;;;;;;5074232;28;20071;-66
2023/10/30 12:51:39;;;;;;;1.08;0.70;;;14.10;99.90;;;;;;5075309;28;20033;-65